sensor_id;sensor_type;location;lat;lon;timestamp;P1;durP1;ratioP1;P2;durP2;ratioP2
52650;SDS011;38537;47.226;39.702;2022-07-06T00:02:07;10.35;;;3.42;;
52650;SDS011;38537;47.226;39.702;2022-07-06T00:04:34;8.38;;;2.92;;
52650;SDS011;38537;47.226;39.702;2022-07-06T00:07:01;5.55;;;2.45;;
52650;SDS011;38537;47.226;39.702;2022-07-06T00:09:29;5.05;;;2.92;;
52650;SDS011;38537;47.226;39.702;2022-07-06T00:11:56;6.85;;;2.78;;
52650;SDS011;38537;47.226;39.702;2022-07-06T00:14:23;4.82;;;2.60;;
52650;SDS011;38537;47.226;39.702;2022-07-06T00:16:50;5.38;;;2.50;;
52650;SDS011;38537;47.226;39.702;2022-07-06T00:19:18;16.67;;;3.13;;
52650;SDS011;38537;47.226;39.702;2022-07-06T00:21:45;8.18;;;2.80;;
52650;SDS011;38537;47.226;39.702;2022-07-06T00:24:13;8.48;;;2.95;;
52650;SDS011;38537;47.226;39.702;2022-07-06T00:26:40;6.90;;;2.47;;
52650;SDS011;38537;47.226;39.702;2022-07-06T00:29:07;4.72;;;2.70;;
52650;SDS011;38537;47.226;39.702;2022-07-06T00:31:34;8.50;;;2.95;;
52650;SDS011;38537;47.226;39.702;2022-07-06T00:34:02;7.15;;;2.50;;
52650;SDS011;38537;47.226;39.702;2022-07-06T00:36:29;9.40;;;3.00;;
52650;SDS011;38537;47.226;39.702;2022-07-06T00:38:56;10.25;;;2.80;;
52650;SDS011;38537;47.226;39.702;2022-07-06T00:41:24;8.43;;;3.10;;
52650;SDS011;38537;47.226;39.702;2022-07-06T00:43:55;4.47;;;2.50;;
52650;SDS011;38537;47.226;39.702;2022-07-06T00:46:27;6.10;;;2.80;;
52650;SDS011;38537;47.226;39.702;2022-07-06T00:48:57;9.68;;;2.80;;
52650;SDS011;38537;47.226;39.702;2022-07-06T00:51:26;7.60;;;2.80;;
52650;SDS011;38537;47.226;39.702;2022-07-06T00:53:59;5.82;;;3.20;;
52650;SDS011;38537;47.226;39.702;2022-07-06T00:56:30;8.05;;;2.47;;
52650;SDS011;38537;47.226;39.702;2022-07-06T00:59:00;5.13;;;2.40;;
52650;SDS011;38537;47.226;39.702;2022-07-06T01:01:28;8.55;;;2.70;;
52650;SDS011;38537;47.226;39.702;2022-07-06T01:03:56;5.78;;;2.38;;
52650;SDS011;38537;47.226;39.702;2022-07-06T01:06:23;5.25;;;2.85;;
52650;SDS011;38537;47.226;39.702;2022-07-06T01:08:52;9.07;;;2.63;;
52650;SDS011;38537;47.226;39.702;2022-07-06T01:11:21;8.57;;;2.70;;
52650;SDS011;38537;47.226;39.702;2022-07-06T01:13:48;6.65;;;2.60;;
52650;SDS011;38537;47.226;39.702;2022-07-06T01:16:17;8.55;;;2.67;;
52650;SDS011;38537;47.226;39.702;2022-07-06T01:18:45;9.70;;;2.83;;
52650;SDS011;38537;47.226;39.702;2022-07-06T01:21:14;6.63;;;2.58;;
52650;SDS011;38537;47.226;39.702;2022-07-06T01:23:43;7.40;;;3.10;;
52650;SDS011;38537;47.226;39.702;2022-07-06T01:26:16;12.13;;;2.70;;
52650;SDS011;38537;47.226;39.702;2022-07-06T01:28:46;9.35;;;2.85;;
52650;SDS011;38537;47.226;39.702;2022-07-06T01:31:21;6.20;;;2.78;;
52650;SDS011;38537;47.226;39.702;2022-07-06T01:33:51;8.48;;;2.83;;
52650;SDS011;38537;47.226;39.702;2022-07-06T01:36:20;5.88;;;2.70;;
52650;SDS011;38537;47.226;39.702;2022-07-06T01:38:50;8.80;;;2.85;;
52650;SDS011;38537;47.226;39.702;2022-07-06T01:41:21;9.07;;;3.05;;
52650;SDS011;38537;47.226;39.702;2022-07-06T01:43:48;8.20;;;2.90;;
52650;SDS011;38537;47.226;39.702;2022-07-06T01:46:17;5.57;;;2.75;;
52650;SDS011;38537;47.226;39.702;2022-07-06T01:48:46;6.43;;;2.80;;
52650;SDS011;38537;47.226;39.702;2022-07-06T01:51:14;12.27;;;3.38;;
52650;SDS011;38537;47.226;39.702;2022-07-06T01:53:43;9.77;;;3.35;;
52650;SDS011;38537;47.226;39.702;2022-07-06T01:56:11;7.75;;;3.03;;
52650;SDS011;38537;47.226;39.702;2022-07-06T01:58:39;12.75;;;3.10;;
52650;SDS011;38537;47.226;39.702;2022-07-06T02:01:09;9.27;;;3.42;;
52650;SDS011;38537;47.226;39.702;2022-07-06T02:03:38;7.85;;;3.22;;
52650;SDS011;38537;47.226;39.702;2022-07-06T02:06:06;12.80;;;2.90;;
52650;SDS011;38537;47.226;39.702;2022-07-06T02:08:34;6.55;;;3.75;;
52650;SDS011;38537;47.226;39.702;2022-07-06T02:11:03;6.72;;;2.92;;
52650;SDS011;38537;47.226;39.702;2022-07-06T02:13:33;9.38;;;3.38;;
52650;SDS011;38537;47.226;39.702;2022-07-06T02:16:23;8.40;;;2.75;;
52650;SDS011;38537;47.226;39.702;2022-07-06T02:18:52;10.00;;;3.10;;
52650;SDS011;38537;47.226;39.702;2022-07-06T02:21:19;8.80;;;3.03;;
52650;SDS011;38537;47.226;39.702;2022-07-06T02:23:46;12.60;;;2.58;;
52650;SDS011;38537;47.226;39.702;2022-07-06T02:26:15;5.53;;;3.45;;
52650;SDS011;38537;47.226;39.702;2022-07-06T02:28:43;7.13;;;2.90;;
52650;SDS011;38537;47.226;39.702;2022-07-06T02:31:13;5.78;;;3.30;;
52650;SDS011;38537;47.226;39.702;2022-07-06T02:33:43;5.25;;;2.80;;
52650;SDS011;38537;47.226;39.702;2022-07-06T02:36:12;12.30;;;3.00;;
52650;SDS011;38537;47.226;39.702;2022-07-06T02:38:41;7.85;;;2.50;;
52650;SDS011;38537;47.226;39.702;2022-07-06T02:41:08;9.32;;;3.10;;
52650;SDS011;38537;47.226;39.702;2022-07-06T02:43:39;7.32;;;2.97;;
52650;SDS011;38537;47.226;39.702;2022-07-06T02:46:06;8.55;;;3.03;;
52650;SDS011;38537;47.226;39.702;2022-07-06T02:48:34;8.32;;;3.20;;
52650;SDS011;38537;47.226;39.702;2022-07-06T02:51:01;7.57;;;2.60;;
52650;SDS011;38537;47.226;39.702;2022-07-06T02:53:29;11.20;;;2.70;;
52650;SDS011;38537;47.226;39.702;2022-07-06T02:55:56;5.47;;;2.60;;
52650;SDS011;38537;47.226;39.702;2022-07-06T02:58:24;6.82;;;2.63;;
52650;SDS011;38537;47.226;39.702;2022-07-06T03:00:52;7.32;;;2.60;;
52650;SDS011;38537;47.226;39.702;2022-07-06T03:03:19;7.95;;;2.70;;
52650;SDS011;38537;47.226;39.702;2022-07-06T03:05:47;5.80;;;2.60;;
52650;SDS011;38537;47.226;39.702;2022-07-06T03:08:17;11.52;;;2.80;;
52650;SDS011;38537;47.226;39.702;2022-07-06T03:10:45;4.53;;;2.15;;
52650;SDS011;38537;47.226;39.702;2022-07-06T03:13:12;8.38;;;2.53;;
52650;SDS011;38537;47.226;39.702;2022-07-06T03:15:40;6.13;;;2.45;;
52650;SDS011;38537;47.226;39.702;2022-07-06T03:18:08;7.90;;;2.35;;
52650;SDS011;38537;47.226;39.702;2022-07-06T03:20:36;7.97;;;2.28;;
52650;SDS011;38537;47.226;39.702;2022-07-06T03:23:06;5.97;;;2.30;;
52650;SDS011;38537;47.226;39.702;2022-07-06T03:25:34;7.22;;;2.40;;
52650;SDS011;38537;47.226;39.702;2022-07-06T03:28:02;7.45;;;2.30;;
52650;SDS011;38537;47.226;39.702;2022-07-06T03:30:29;5.80;;;2.25;;
52650;SDS011;38537;47.226;39.702;2022-07-06T03:32:57;10.35;;;2.35;;
52650;SDS011;38537;47.226;39.702;2022-07-06T03:35:27;6.95;;;2.58;;
52650;SDS011;38537;47.226;39.702;2022-07-06T03:37:55;5.90;;;2.30;;
52650;SDS011;38537;47.226;39.702;2022-07-06T03:40:25;7.72;;;2.35;;
52650;SDS011;38537;47.226;39.702;2022-07-06T03:42:53;10.65;;;2.67;;
52650;SDS011;38537;47.226;39.702;2022-07-06T03:45:20;6.93;;;2.90;;
52650;SDS011;38537;47.226;39.702;2022-07-06T03:47:48;13.93;;;2.90;;
52650;SDS011;38537;47.226;39.702;2022-07-06T03:50:15;10.00;;;2.67;;
52650;SDS011;38537;47.226;39.702;2022-07-06T03:52:42;6.60;;;2.58;;
52650;SDS011;38537;47.226;39.702;2022-07-06T03:55:11;7.00;;;2.50;;
52650;SDS011;38537;47.226;39.702;2022-07-06T03:57:43;8.40;;;2.63;;
52650;SDS011;38537;47.226;39.702;2022-07-06T04:00:14;4.32;;;2.33;;
52650;SDS011;38537;47.226;39.702;2022-07-06T04:02:48;9.23;;;2.73;;
52650;SDS011;38537;47.226;39.702;2022-07-06T04:05:20;17.23;;;3.42;;
52650;SDS011;38537;47.226;39.702;2022-07-06T04:07:50;12.02;;;3.03;;
52650;SDS011;38537;47.226;39.702;2022-07-06T04:10:19;13.40;;;3.00;;
52650;SDS011;38537;47.226;39.702;2022-07-06T04:12:47;8.30;;;2.90;;
52650;SDS011;38537;47.226;39.702;2022-07-06T04:15:17;12.07;;;2.85;;
52650;SDS011;38537;47.226;39.702;2022-07-06T04:17:45;7.22;;;2.70;;
52650;SDS011;38537;47.226;39.702;2022-07-06T04:20:30;12.60;;;3.03;;
52650;SDS011;38537;47.226;39.702;2022-07-06T04:22:57;9.10;;;3.10;;
52650;SDS011;38537;47.226;39.702;2022-07-06T04:25:26;10.98;;;3.10;;
52650;SDS011;38537;47.226;39.702;2022-07-06T04:27:57;8.95;;;2.78;;
52650;SDS011;38537;47.226;39.702;2022-07-06T04:30:26;6.40;;;2.50;;
52650;SDS011;38537;47.226;39.702;2022-07-06T04:32:54;9.70;;;2.60;;
52650;SDS011;38537;47.226;39.702;2022-07-06T04:35:25;10.95;;;3.08;;
52650;SDS011;38537;47.226;39.702;2022-07-06T04:37:56;7.93;;;2.20;;
52650;SDS011;38537;47.226;39.702;2022-07-06T04:40:24;6.88;;;2.35;;
52650;SDS011;38537;47.226;39.702;2022-07-06T04:42:56;5.53;;;2.10;;
52650;SDS011;38537;47.226;39.702;2022-07-06T04:45:25;7.22;;;2.30;;
52650;SDS011;38537;47.226;39.702;2022-07-06T04:47:53;5.32;;;2.10;;
52650;SDS011;38537;47.226;39.702;2022-07-06T04:50:20;6.45;;;2.10;;
52650;SDS011;38537;47.226;39.702;2022-07-06T04:52:49;5.38;;;2.25;;
52650;SDS011;38537;47.226;39.702;2022-07-06T04:55:17;4.35;;;2.05;;
52650;SDS011;38537;47.226;39.702;2022-07-06T04:57:45;3.63;;;2.10;;
52650;SDS011;38537;47.226;39.702;2022-07-06T05:00:16;5.85;;;2.10;;
52650;SDS011;38537;47.226;39.702;2022-07-06T05:02:46;4.40;;;2.33;;
52650;SDS011;38537;47.226;39.702;2022-07-06T05:05:14;5.13;;;2.10;;
52650;SDS011;38537;47.226;39.702;2022-07-06T05:07:42;6.75;;;2.25;;
52650;SDS011;38537;47.226;39.702;2022-07-06T05:10:10;5.15;;;2.03;;
52650;SDS011;38537;47.226;39.702;2022-07-06T05:12:42;5.60;;;2.33;;
52650;SDS011;38537;47.226;39.702;2022-07-06T05:15:10;3.50;;;1.90;;
52650;SDS011;38537;47.226;39.702;2022-07-06T05:17:38;4.78;;;2.45;;
52650;SDS011;38537;47.226;39.702;2022-07-06T05:20:06;3.63;;;2.15;;
52650;SDS011;38537;47.226;39.702;2022-07-06T05:22:37;3.88;;;2.05;;
52650;SDS011;38537;47.226;39.702;2022-07-06T05:25:13;5.28;;;2.10;;
52650;SDS011;38537;47.226;39.702;2022-07-06T05:27:41;6.82;;;2.47;;
52650;SDS011;38537;47.226;39.702;2022-07-06T05:30:09;5.00;;;2.33;;
52650;SDS011;38537;47.226;39.702;2022-07-06T05:32:37;4.63;;;1.92;;
52650;SDS011;38537;47.226;39.702;2022-07-06T05:35:05;2.95;;;2.03;;
52650;SDS011;38537;47.226;39.702;2022-07-06T05:37:54;4.85;;;2.08;;
52650;SDS011;38537;47.226;39.702;2022-07-06T05:40:21;4.18;;;2.35;;
52650;SDS011;38537;47.226;39.702;2022-07-06T05:42:49;3.95;;;2.00;;
52650;SDS011;38537;47.226;39.702;2022-07-06T05:45:17;5.60;;;1.85;;
52650;SDS011;38537;47.226;39.702;2022-07-06T05:47:45;4.30;;;2.00;;
52650;SDS011;38537;47.226;39.702;2022-07-06T05:50:33;4.32;;;1.90;;
52650;SDS011;38537;47.226;39.702;2022-07-06T05:53:02;3.50;;;2.00;;
52650;SDS011;38537;47.226;39.702;2022-07-06T05:55:44;2.60;;;1.88;;
52650;SDS011;38537;47.226;39.702;2022-07-06T05:58:12;4.30;;;2.10;;
52650;SDS011;38537;47.226;39.702;2022-07-06T06:00:42;5.00;;;1.90;;
52650;SDS011;38537;47.226;39.702;2022-07-06T06:03:15;3.78;;;1.90;;
52650;SDS011;38537;47.226;39.702;2022-07-06T06:05:43;7.55;;;2.22;;
52650;SDS011;38537;47.226;39.702;2022-07-06T06:08:12;4.90;;;2.17;;
52650;SDS011;38537;47.226;39.702;2022-07-06T06:10:39;8.55;;;2.40;;
52650;SDS011;38537;47.226;39.702;2022-07-06T06:13:10;6.00;;;2.35;;
52650;SDS011;38537;47.226;39.702;2022-07-06T06:15:38;5.78;;;2.20;;
52650;SDS011;38537;47.226;39.702;2022-07-06T06:18:06;7.55;;;2.13;;
52650;SDS011;38537;47.226;39.702;2022-07-06T06:20:33;6.13;;;2.38;;
52650;SDS011;38537;47.226;39.702;2022-07-06T06:23:01;8.20;;;2.15;;
52650;SDS011;38537;47.226;39.702;2022-07-06T06:25:32;4.60;;;1.90;;
52650;SDS011;38537;47.226;39.702;2022-07-06T06:27:59;5.18;;;1.90;;
52650;SDS011;38537;47.226;39.702;2022-07-06T06:30:27;6.93;;;1.83;;
52650;SDS011;38537;47.226;39.702;2022-07-06T06:35:54;3.53;;;2.00;;
52650;SDS011;38537;47.226;39.702;2022-07-06T06:38:22;4.22;;;1.90;;
52650;SDS011;38537;47.226;39.702;2022-07-06T06:40:54;6.05;;;2.00;;
52650;SDS011;38537;47.226;39.702;2022-07-06T06:43:22;3.67;;;1.80;;
52650;SDS011;38537;47.226;39.702;2022-07-06T06:46:04;6.57;;;2.00;;
52650;SDS011;38537;47.226;39.702;2022-07-06T06:48:31;5.97;;;2.10;;
52650;SDS011;38537;47.226;39.702;2022-07-06T06:50:58;6.72;;;2.00;;
52650;SDS011;38537;47.226;39.702;2022-07-06T06:53:26;6.97;;;2.10;;
52650;SDS011;38537;47.226;39.702;2022-07-06T06:55:53;7.13;;;2.00;;
52650;SDS011;38537;47.226;39.702;2022-07-06T06:58:20;6.07;;;1.98;;
52650;SDS011;38537;47.226;39.702;2022-07-06T07:00:48;5.45;;;1.83;;
52650;SDS011;38537;47.226;39.702;2022-07-06T07:03:15;5.10;;;1.90;;
52650;SDS011;38537;47.226;39.702;2022-07-06T07:05:43;5.40;;;1.90;;
52650;SDS011;38537;47.226;39.702;2022-07-06T07:08:10;3.90;;;1.90;;
52650;SDS011;38537;47.226;39.702;2022-07-06T07:10:37;4.63;;;1.83;;
52650;SDS011;38537;47.226;39.702;2022-07-06T07:13:04;3.28;;;1.52;;
52650;SDS011;38537;47.226;39.702;2022-07-06T07:15:32;3.55;;;1.80;;
52650;SDS011;38537;47.226;39.702;2022-07-06T07:17:59;3.25;;;1.80;;
52650;SDS011;38537;47.226;39.702;2022-07-06T07:20:26;6.88;;;1.90;;
52650;SDS011;38537;47.226;39.702;2022-07-06T07:22:56;6.65;;;2.00;;
52650;SDS011;38537;47.226;39.702;2022-07-06T07:25:24;4.00;;;1.70;;
52650;SDS011;38537;47.226;39.702;2022-07-06T07:27:52;4.38;;;1.60;;
52650;SDS011;38537;47.226;39.702;2022-07-06T07:30:19;4.80;;;1.90;;
52650;SDS011;38537;47.226;39.702;2022-07-06T07:32:47;2.78;;;1.70;;
52650;SDS011;38537;47.226;39.702;2022-07-06T07:35:14;3.20;;;1.50;;
52650;SDS011;38537;47.226;39.702;2022-07-06T07:37:41;3.00;;;1.50;;
52650;SDS011;38537;47.226;39.702;2022-07-06T07:40:09;4.07;;;1.70;;
52650;SDS011;38537;47.226;39.702;2022-07-06T07:42:36;2.42;;;1.65;;
52650;SDS011;38537;47.226;39.702;2022-07-06T07:45:07;5.10;;;1.98;;
52650;SDS011;38537;47.226;39.702;2022-07-06T07:47:35;3.10;;;1.50;;
52650;SDS011;38537;47.226;39.702;2022-07-06T07:50:02;2.67;;;1.60;;
52650;SDS011;38537;47.226;39.702;2022-07-06T07:52:30;4.40;;;1.50;;
52650;SDS011;38537;47.226;39.702;2022-07-06T07:54:57;3.33;;;1.60;;
52650;SDS011;38537;47.226;39.702;2022-07-06T07:57:45;2.65;;;1.80;;
52650;SDS011;38537;47.226;39.702;2022-07-06T08:00:12;5.22;;;1.70;;
52650;SDS011;38537;47.226;39.702;2022-07-06T08:02:40;5.45;;;2.00;;
52650;SDS011;38537;47.226;39.702;2022-07-06T08:05:07;7.50;;;1.80;;
52650;SDS011;38537;47.226;39.702;2022-07-06T08:07:35;3.25;;;1.73;;
52650;SDS011;38537;47.226;39.702;2022-07-06T08:10:02;3.35;;;1.52;;
52650;SDS011;38537;47.226;39.702;2022-07-06T08:12:29;4.40;;;1.85;;
52650;SDS011;38537;47.226;39.702;2022-07-06T08:14:57;3.40;;;1.45;;
52650;SDS011;38537;47.226;39.702;2022-07-06T08:17:25;3.67;;;1.92;;
52650;SDS011;38537;47.226;39.702;2022-07-06T08:19:52;4.57;;;2.00;;
52650;SDS011;38537;47.226;39.702;2022-07-06T08:22:19;7.20;;;2.35;;
52650;SDS011;38537;47.226;39.702;2022-07-06T08:24:47;5.32;;;2.03;;
52650;SDS011;38537;47.226;39.702;2022-07-06T08:27:14;2.38;;;2.00;;
52650;SDS011;38537;47.226;39.702;2022-07-06T08:29:42;4.03;;;1.90;;
52650;SDS011;38537;47.226;39.702;2022-07-06T08:32:10;3.40;;;1.70;;
52650;SDS011;38537;47.226;39.702;2022-07-06T08:34:51;11.30;;;2.03;;
52650;SDS011;38537;47.226;39.702;2022-07-06T08:37:19;3.78;;;2.10;;
52650;SDS011;38537;47.226;39.702;2022-07-06T08:39:47;3.17;;;1.60;;
52650;SDS011;38537;47.226;39.702;2022-07-06T08:42:15;2.65;;;1.70;;
52650;SDS011;38537;47.226;39.702;2022-07-06T08:44:43;3.15;;;1.60;;
52650;SDS011;38537;47.226;39.702;2022-07-06T08:47:11;2.67;;;1.80;;
52650;SDS011;38537;47.226;39.702;2022-07-06T08:49:43;1.75;;;1.55;;
52650;SDS011;38537;47.226;39.702;2022-07-06T08:52:11;2.45;;;1.60;;
52650;SDS011;38537;47.226;39.702;2022-07-06T08:54:39;2.20;;;1.40;;
52650;SDS011;38537;47.226;39.702;2022-07-06T08:57:07;4.28;;;2.17;;
52650;SDS011;38537;47.226;39.702;2022-07-06T08:59:34;3.13;;;1.70;;
52650;SDS011;38537;47.226;39.702;2022-07-06T09:02:02;2.50;;;1.65;;
52650;SDS011;38537;47.226;39.702;2022-07-06T09:04:32;3.17;;;1.48;;
52650;SDS011;38537;47.226;39.702;2022-07-06T09:07:00;4.43;;;1.70;;
52650;SDS011;38537;47.226;39.702;2022-07-06T09:09:28;4.43;;;1.65;;
52650;SDS011;38537;47.226;39.702;2022-07-06T09:11:59;3.00;;;1.67;;
52650;SDS011;38537;47.226;39.702;2022-07-06T09:14:29;2.92;;;1.60;;
52650;SDS011;38537;47.226;39.702;2022-07-06T09:17:06;5.05;;;1.95;;
52650;SDS011;38537;47.226;39.702;2022-07-06T09:19:42;5.10;;;1.98;;
52650;SDS011;38537;47.226;39.702;2022-07-06T09:22:24;7.10;;;1.80;;
52650;SDS011;38537;47.226;39.702;2022-07-06T09:25:07;4.75;;;1.77;;
52650;SDS011;38537;47.226;39.702;2022-07-06T09:27:41;2.92;;;1.80;;
52650;SDS011;38537;47.226;39.702;2022-07-06T09:30:10;7.90;;;2.00;;
52650;SDS011;38537;47.226;39.702;2022-07-06T09:32:38;2.13;;;1.60;;
52650;SDS011;38537;47.226;39.702;2022-07-06T09:35:08;3.45;;;2.30;;
52650;SDS011;38537;47.226;39.702;2022-07-06T09:37:46;5.30;;;1.95;;
52650;SDS011;38537;47.226;39.702;2022-07-06T09:40:18;3.80;;;2.00;;
52650;SDS011;38537;47.226;39.702;2022-07-06T09:42:46;5.05;;;2.00;;
52650;SDS011;38537;47.226;39.702;2022-07-06T09:45:14;4.05;;;1.80;;
52650;SDS011;38537;47.226;39.702;2022-07-06T09:47:52;2.85;;;1.75;;
52650;SDS011;38537;47.226;39.702;2022-07-06T09:50:20;3.05;;;1.77;;
52650;SDS011;38537;47.226;39.702;2022-07-06T09:52:54;2.28;;;1.67;;
52650;SDS011;38537;47.226;39.702;2022-07-06T09:55:22;5.43;;;1.85;;
52650;SDS011;38537;47.226;39.702;2022-07-06T09:57:53;3.55;;;1.70;;
52650;SDS011;38537;47.226;39.702;2022-07-06T10:00:24;3.50;;;1.67;;
52650;SDS011;38537;47.226;39.702;2022-07-06T10:02:51;6.25;;;1.70;;
52650;SDS011;38537;47.226;39.702;2022-07-06T10:05:22;1.98;;;1.80;;
52650;SDS011;38537;47.226;39.702;2022-07-06T10:08:08;4.13;;;1.73;;
52650;SDS011;38537;47.226;39.702;2022-07-06T10:10:37;2.40;;;1.48;;
52650;SDS011;38537;47.226;39.702;2022-07-06T10:13:06;1.98;;;1.38;;
52650;SDS011;38537;47.226;39.702;2022-07-06T10:15:35;2.42;;;1.60;;
52650;SDS011;38537;47.226;39.702;2022-07-06T10:18:04;4.28;;;1.70;;
52650;SDS011;38537;47.226;39.702;2022-07-06T10:20:34;3.95;;;1.70;;
52650;SDS011;38537;47.226;39.702;2022-07-06T10:23:05;6.35;;;1.90;;
52650;SDS011;38537;47.226;39.702;2022-07-06T10:25:34;4.82;;;1.50;;
52650;SDS011;38537;47.226;39.702;2022-07-06T10:28:01;3.28;;;2.00;;
52650;SDS011;38537;47.226;39.702;2022-07-06T10:30:29;3.00;;;1.80;;
52650;SDS011;38537;47.226;39.702;2022-07-06T10:32:58;3.70;;;1.63;;
52650;SDS011;38537;47.226;39.702;2022-07-06T10:35:26;1.80;;;1.48;;
52650;SDS011;38537;47.226;39.702;2022-07-06T10:38:04;5.00;;;1.80;;
52650;SDS011;38537;47.226;39.702;2022-07-06T10:40:33;3.58;;;1.70;;
52650;SDS011;38537;47.226;39.702;2022-07-06T10:43:20;5.80;;;1.67;;
52650;SDS011;38537;47.226;39.702;2022-07-06T10:48:15;3.80;;;1.55;;
52650;SDS011;38537;47.226;39.702;2022-07-06T10:50:48;3.53;;;1.50;;
52650;SDS011;38537;47.226;39.702;2022-07-06T10:53:20;1.73;;;1.60;;
52650;SDS011;38537;47.226;39.702;2022-07-06T10:55:50;2.40;;;1.58;;
52650;SDS011;38537;47.226;39.702;2022-07-06T11:01:04;4.57;;;1.50;;
52650;SDS011;38537;47.226;39.702;2022-07-06T11:03:40;3.70;;;1.65;;
52650;SDS011;38537;47.226;39.702;2022-07-06T11:11:23;2.33;;;1.60;;
52650;SDS011;38537;47.226;39.702;2022-07-06T11:19:17;4.40;;;1.50;;
52650;SDS011;38537;47.226;39.702;2022-07-06T11:21:56;1.45;;;1.35;;
52650;SDS011;38537;47.226;39.702;2022-07-06T11:24:26;1.95;;;1.50;;
52650;SDS011;38537;47.226;39.702;2022-07-06T11:26:55;4.38;;;1.90;;
52650;SDS011;38537;47.226;39.702;2022-07-06T11:29:25;2.90;;;2.00;;
52650;SDS011;38537;47.226;39.702;2022-07-06T11:31:55;4.40;;;1.95;;
52650;SDS011;38537;47.226;39.702;2022-07-06T11:34:25;2.80;;;1.40;;
52650;SDS011;38537;47.226;39.702;2022-07-06T11:36:55;2.05;;;1.50;;
52650;SDS011;38537;47.226;39.702;2022-07-06T11:39:42;2.28;;;1.35;;
52650;SDS011;38537;47.226;39.702;2022-07-06T11:42:11;3.42;;;1.90;;
52650;SDS011;38537;47.226;39.702;2022-07-06T11:44:40;3.05;;;1.40;;
52650;SDS011;38537;47.226;39.702;2022-07-06T11:47:09;3.92;;;1.90;;
52650;SDS011;38537;47.226;39.702;2022-07-06T11:49:38;3.08;;;1.60;;
52650;SDS011;38537;47.226;39.702;2022-07-06T11:52:10;5.88;;;1.60;;
52650;SDS011;38537;47.226;39.702;2022-07-06T11:54:41;2.35;;;1.50;;
52650;SDS011;38537;47.226;39.702;2022-07-06T11:57:10;4.65;;;1.67;;
52650;SDS011;38537;47.226;39.702;2022-07-06T11:59:39;3.10;;;1.77;;
52650;SDS011;38537;47.226;39.702;2022-07-06T12:02:08;2.78;;;1.40;;
52650;SDS011;38537;47.226;39.702;2022-07-06T12:04:44;4.53;;;1.80;;
52650;SDS011;38537;47.226;39.702;2022-07-06T12:07:13;3.80;;;1.30;;
52650;SDS011;38537;47.226;39.702;2022-07-06T12:09:43;2.60;;;1.27;;
52650;SDS011;38537;47.226;39.702;2022-07-06T12:12:13;3.10;;;1.60;;
52650;SDS011;38537;47.226;39.702;2022-07-06T12:14:42;2.80;;;1.55;;
52650;SDS011;38537;47.226;39.702;2022-07-06T12:17:11;7.10;;;1.98;;
52650;SDS011;38537;47.226;39.702;2022-07-06T12:19:40;2.45;;;1.55;;
52650;SDS011;38537;47.226;39.702;2022-07-06T12:22:09;2.40;;;1.70;;
52650;SDS011;38537;47.226;39.702;2022-07-06T12:24:36;2.95;;;1.50;;
52650;SDS011;38537;47.226;39.702;2022-07-06T12:27:11;7.22;;;1.88;;
52650;SDS011;38537;47.226;39.702;2022-07-06T12:29:42;2.58;;;1.58;;
52650;SDS011;38537;47.226;39.702;2022-07-06T12:32:17;2.85;;;1.40;;
52650;SDS011;38537;47.226;39.702;2022-07-06T12:34:46;2.20;;;1.30;;
52650;SDS011;38537;47.226;39.702;2022-07-06T12:37:14;6.38;;;1.40;;
52650;SDS011;38537;47.226;39.702;2022-07-06T12:39:46;3.42;;;1.25;;
52650;SDS011;38537;47.226;39.702;2022-07-06T12:42:15;3.10;;;1.38;;
52650;SDS011;38537;47.226;39.702;2022-07-06T12:44:47;2.67;;;1.30;;
52650;SDS011;38537;47.226;39.702;2022-07-06T12:47:22;3.00;;;1.40;;
52650;SDS011;38537;47.226;39.702;2022-07-06T12:50:04;2.97;;;1.40;;
52650;SDS011;38537;47.226;39.702;2022-07-06T12:52:34;4.00;;;1.50;;
52650;SDS011;38537;47.226;39.702;2022-07-06T12:55:03;2.38;;;1.40;;
52650;SDS011;38537;47.226;39.702;2022-07-06T12:57:46;3.85;;;1.60;;
52650;SDS011;38537;47.226;39.702;2022-07-06T13:00:15;4.68;;;1.30;;
52650;SDS011;38537;47.226;39.702;2022-07-06T13:02:44;5.10;;;1.48;;
52650;SDS011;38537;47.226;39.702;2022-07-06T13:05:33;3.08;;;1.20;;
52650;SDS011;38537;47.226;39.702;2022-07-06T13:08:02;2.22;;;1.20;;
52650;SDS011;38537;47.226;39.702;2022-07-06T13:10:29;1.50;;;1.20;;
52650;SDS011;38537;47.226;39.702;2022-07-06T13:13:00;2.83;;;1.30;;
52650;SDS011;38537;47.226;39.702;2022-07-06T13:15:27;5.15;;;1.60;;
52650;SDS011;38537;47.226;39.702;2022-07-06T13:17:58;4.28;;;1.27;;
52650;SDS011;38537;47.226;39.702;2022-07-06T13:20:25;4.70;;;1.20;;
52650;SDS011;38537;47.226;39.702;2022-07-06T13:22:53;3.47;;;1.33;;
52650;SDS011;38537;47.226;39.702;2022-07-06T13:25:20;1.90;;;1.23;;
52650;SDS011;38537;47.226;39.702;2022-07-06T13:27:48;2.88;;;1.40;;
52650;SDS011;38537;47.226;39.702;2022-07-06T13:30:15;2.55;;;1.30;;
52650;SDS011;38537;47.226;39.702;2022-07-06T13:32:42;2.80;;;1.20;;
52650;SDS011;38537;47.226;39.702;2022-07-06T13:35:10;3.63;;;1.40;;
52650;SDS011;38537;47.226;39.702;2022-07-06T13:37:37;1.85;;;1.17;;
52650;SDS011;38537;47.226;39.702;2022-07-06T13:40:04;1.52;;;1.10;;
52650;SDS011;38537;47.226;39.702;2022-07-06T13:42:32;4.70;;;1.63;;
52650;SDS011;38537;47.226;39.702;2022-07-06T13:44:59;3.40;;;1.35;;
52650;SDS011;38537;47.226;39.702;2022-07-06T13:47:30;2.58;;;1.20;;
52650;SDS011;38537;47.226;39.702;2022-07-06T13:49:57;2.65;;;1.40;;
52650;SDS011;38537;47.226;39.702;2022-07-06T13:52:24;2.25;;;1.35;;
52650;SDS011;38537;47.226;39.702;2022-07-06T13:54:51;4.38;;;1.42;;
52650;SDS011;38537;47.226;39.702;2022-07-06T13:57:26;3.08;;;1.27;;
52650;SDS011;38537;47.226;39.702;2022-07-06T13:59:54;3.05;;;1.10;;
52650;SDS011;38537;47.226;39.702;2022-07-06T14:02:21;1.40;;;0.95;;
52650;SDS011;38537;47.226;39.702;2022-07-06T14:04:49;2.38;;;1.17;;
52650;SDS011;38537;47.226;39.702;2022-07-06T14:07:16;1.77;;;1.00;;
52650;SDS011;38537;47.226;39.702;2022-07-06T14:09:47;5.05;;;1.30;;
52650;SDS011;38537;47.226;39.702;2022-07-06T14:12:19;2.53;;;1.20;;
52650;SDS011;38537;47.226;39.702;2022-07-06T14:14:49;1.83;;;1.30;;
52650;SDS011;38537;47.226;39.702;2022-07-06T14:17:16;3.80;;;1.40;;
52650;SDS011;38537;47.226;39.702;2022-07-06T14:19:44;4.07;;;1.38;;
52650;SDS011;38537;47.226;39.702;2022-07-06T14:22:11;5.55;;;1.25;;
52650;SDS011;38537;47.226;39.702;2022-07-06T14:24:39;5.07;;;1.40;;
52650;SDS011;38537;47.226;39.702;2022-07-06T14:27:06;3.67;;;1.23;;
52650;SDS011;38537;47.226;39.702;2022-07-06T14:29:34;4.28;;;1.50;;
52650;SDS011;38537;47.226;39.702;2022-07-06T14:32:01;2.17;;;1.45;;
52650;SDS011;38537;47.226;39.702;2022-07-06T14:34:28;4.10;;;1.30;;
52650;SDS011;38537;47.226;39.702;2022-07-06T14:36:56;4.57;;;1.27;;
52650;SDS011;38537;47.226;39.702;2022-07-06T14:39:23;3.92;;;1.20;;
52650;SDS011;38537;47.226;39.702;2022-07-06T14:41:50;3.17;;;1.38;;
52650;SDS011;38537;47.226;39.702;2022-07-06T14:44:17;4.22;;;1.30;;
52650;SDS011;38537;47.226;39.702;2022-07-06T14:46:45;2.38;;;1.00;;
52650;SDS011;38537;47.226;39.702;2022-07-06T14:49:12;3.55;;;1.30;;
52650;SDS011;38537;47.226;39.702;2022-07-06T14:51:46;4.90;;;1.50;;
52650;SDS011;38537;47.226;39.702;2022-07-06T14:54:15;1.88;;;1.30;;
52650;SDS011;38537;47.226;39.702;2022-07-06T14:56:42;5.28;;;1.50;;
52650;SDS011;38537;47.226;39.702;2022-07-06T14:59:09;3.38;;;1.20;;
52650;SDS011;38537;47.226;39.702;2022-07-06T15:01:52;3.78;;;1.40;;
52650;SDS011;38537;47.226;39.702;2022-07-06T15:04:20;4.40;;;1.30;;
52650;SDS011;38537;47.226;39.702;2022-07-06T15:06:48;7.13;;;1.50;;